Time;durP1;ratioP1;P1;durP2;ratioP2;P2;SDS_P1;SDS_P2;PMS_P1;PMS_P2;Temp;Humidity;BMP_temperature;BMP_pressure;BME280_temperature;BME280_humidity;BME280_pressure;Samples;Min_cycle;Max_cycle;Signal;HPM_P1;HPM_P2
2022/01/22 00:01:58;;;;;;;5.78;2.78;;;16.60;40.60;;;;;;5083978;28;20073;-37
2022/01/22 00:04:24;;;;;;;5.20;2.60;;;16.60;40.60;;;;;;5101564;28;20016;-36
2022/01/22 00:06:51;;;;;;;6.07;2.75;;;16.60;40.60;;;;;;5100789;28;20038;-36
2022/01/22 00:09:17;;;;;;;6.03;3.05;;;16.60;40.70;;;;;;5100578;28;20016;-37
2022/01/22 00:11:52;;;;;;;5.50;2.85;;;16.60;40.70;;;;;;5100265;28;20028;-36
2022/01/22 00:14:23;;;;;;;6.75;2.90;;;16.50;40.70;;;;;;5099789;28;20084;-37
2022/01/22 00:16:58;;;;;;;5.50;2.85;;;16.60;40.80;;;;;;5099978;28;20087;-37
2022/01/22 00:19:24;;;;;;;4.15;2.50;;;16.60;40.70;;;;;;5100032;28;20094;-36
2022/01/22 00:21:50;;;;;;;4.75;2.70;;;16.60;40.80;;;;;;5100194;28;20016;-36
2022/01/22 00:24:16;;;;;;;5.13;2.90;;;16.50;40.70;;;;;;5099827;28;20095;-36
2022/01/22 00:26:43;;;;;;;5.38;2.55;;;16.50;40.80;;;;;;5101016;28;20060;-35
2022/01/22 00:29:10;;;;;;;4.32;2.75;;;16.50;40.80;;;;;;5101032;28;20016;-36
2022/01/22 00:31:37;;;;;;;5.43;2.72;;;16.50;40.80;;;;;;5102040;28;20040;-37
2022/01/22 00:34:02;;;;;;;4.65;2.70;;;16.50;40.80;;;;;;5102489;28;20016;-36
2022/01/22 00:36:29;;;;;;;4.22;2.67;;;16.50;40.90;;;;;;5101197;28;20027;-37
2022/01/22 00:38:56;;;;;;;5.07;2.50;;;16.50;40.80;;;;;;5100035;28;20502;-36
2022/01/22 00:41:22;;;;;;;5.18;3.00;;;16.50;40.80;;;;;;5100579;28;20020;-36
2022/01/22 00:43:48;;;;;;;4.72;2.65;;;16.50;40.80;;;;;;5100117;28;20016;-36
2022/01/22 00:46:14;;;;;;;6.28;2.75;;;16.50;40.80;;;;;;5100262;28;20107;-36
2022/01/22 00:48:40;;;;;;;5.32;2.50;;;16.50;40.90;;;;;;5099744;28;20071;-36
2022/01/22 00:51:06;;;;;;;5.80;2.75;;;16.50;40.80;;;;;;5100422;28;20028;-36
2022/01/22 00:53:32;;;;;;;4.78;2.40;;;16.50;40.80;;;;;;5101912;28;20036;-36
2022/01/22 00:55:58;;;;;;;5.82;2.58;;;16.50;40.90;;;;;;5101916;28;20528;-37
2022/01/22 00:58:25;;;;;;;6.53;2.88;;;16.50;40.90;;;;;;5101570;28;20016;-36
2022/01/22 01:00:51;;;;;;;3.95;2.40;;;16.50;40.90;;;;;;5102272;28;20107;-37
2022/01/22 01:03:17;;;;;;;5.15;2.53;;;16.50;41.00;;;;;;5082638;28;20555;-35
2022/01/22 01:05:43;;;;;;;5.20;2.70;;;16.50;41.00;;;;;;5083010;28;20073;-36
2022/01/22 01:08:10;;;;;;;5.07;2.47;;;16.50;41.00;;;;;;5100542;28;20095;-36
2022/01/22 01:10:35;;;;;;;5.07;2.70;;;16.50;41.00;;;;;;5081486;28;20024;-36
2022/01/22 01:13:01;;;;;;;4.03;2.45;;;16.50;41.00;;;;;;5099598;28;20039;-36
2022/01/22 01:15:56;;;;;;;5.28;2.80;;;16.40;41.00;;;;;;5100121;28;20019;-36
2022/01/22 01:32:33;;;;;;;4.53;2.90;;;16.50;41.10;;;;;;5099610;28;20035;-36
2022/01/22 01:34:57;;;;;;;4.38;2.63;;;16.40;41.10;;;;;;5098102;28;20040;-36
2022/01/22 01:37:22;;;;;;;4.55;2.53;;;16.40;41.10;;;;;;5099022;28;20065;-36
2022/01/22 01:39:52;;;;;;;8.60;2.67;;;16.40;41.20;;;;;;5098560;28;20019;-36
2022/01/22 01:43:08;;;;;;;4.45;2.50;;;16.40;41.20;;;;;;5099094;28;20031;-37
2022/01/22 01:45:04;;;;;;;4.93;2.40;;;16.40;41.20;;;;;;5083960;28;20031;-38
2022/01/22 01:47:30;;;;;;;4.60;2.55;;;16.40;41.20;;;;;;5098496;28;20036;-37
2022/01/22 01:49:56;;;;;;;5.60;2.70;;;16.40;41.30;;;;;;5097676;28;20035;-37
2022/01/22 01:52:34;;;;;;;5.47;2.60;;;16.40;41.30;;;;;;5097558;28;20467;-37
2022/01/22 01:55:09;;;;;;;4.60;2.58;;;16.40;41.30;;;;;;5097678;28;20043;-37
2022/01/22 01:57:43;;;;;;;4.03;2.60;;;16.30;41.20;;;;;;5081398;28;20158;-38
2022/01/22 02:00:27;;;;;;;6.30;2.58;;;16.40;41.30;;;;;;5098003;28;20012;-38
2022/01/22 02:02:54;;;;;;;4.75;2.55;;;16.40;41.30;;;;;;5097317;28;20046;-37
2022/01/22 02:05:21;;;;;;;4.13;2.50;;;16.40;41.30;;;;;;5097166;28;20012;-38
2022/01/22 02:07:48;;;;;;;4.55;2.65;;;16.30;41.30;;;;;;5097430;28;20049;-38
2022/01/22 02:10:20;;;;;;;5.10;2.65;;;16.40;41.40;;;;;;5096919;28;20047;-38
2022/01/22 02:13:38;;;;;;;4.40;2.85;;;16.30;41.40;;;;;;5097381;28;20035;-37
2022/01/22 02:23:51;;;;;;;4.80;2.40;;;16.30;41.40;;;;;;5097202;28;20027;-37
2022/01/22 02:26:17;;;;;;;3.72;2.53;;;16.30;41.50;;;;;;5096250;28;20462;-36
2022/01/22 02:28:48;;;;;;;2.80;2.10;;;16.30;41.50;;;;;;5095799;28;20047;-37
2022/01/22 02:34:25;;;;;;;4.78;2.70;;;16.30;41.40;;;;;;5013283;28;20030;-40
2022/01/22 02:36:59;;;;;;;5.43;2.60;;;16.30;41.50;;;;;;5013568;28;20493;-39
2022/01/22 02:39:42;;;;;;;4.55;2.60;;;16.30;41.60;;;;;;5000486;28;20064;-40
2022/01/22 02:42:07;;;;;;;4.25;2.40;;;16.30;41.60;;;;;;5016280;28;20564;-40
2022/01/22 02:44:45;;;;;;;4.43;2.30;;;16.20;41.60;;;;;;5016618;28;20072;-42
2022/01/22 02:47:12;;;;;;;3.28;2.30;;;16.20;41.60;;;;;;5016653;28;20038;-42
2022/01/22 02:49:37;;;;;;;4.75;2.53;;;16.20;41.60;;;;;;5016751;28;20463;-39
2022/01/22 02:52:17;;;;;;;4.75;2.55;;;16.20;41.60;;;;;;5016704;28;20049;-39
2022/01/22 02:54:44;;;;;;;5.47;2.67;;;16.30;41.70;;;;;;5014929;28;20049;-40
2022/01/22 02:57:11;;;;;;;3.75;2.35;;;16.20;41.60;;;;;;5015457;28;20049;-39
2022/01/22 02:59:37;;;;;;;4.43;2.47;;;16.20;41.70;;;;;;5016034;28;20018;-39
2022/01/22 03:02:04;;;;;;;5.53;2.70;;;16.20;41.80;;;;;;5016868;28;20052;-40
2022/01/22 03:04:30;;;;;;;3.53;2.20;;;16.20;41.80;;;;;;5016717;28;20044;-41
2022/01/22 03:06:56;;;;;;;3.78;2.33;;;16.20;41.80;;;;;;5015630;28;20396;-39
2022/01/22 03:09:28;;;;;;;5.13;2.55;;;16.20;41.70;;;;;;5043293;28;20067;-40
2022/01/22 03:20:34;;;;;;;4.07;2.42;;;16.20;41.90;;;;;;5102174;28;20013;-39
2022/01/22 03:23:08;;;;;;;4.95;2.63;;;16.20;41.90;;;;;;5101747;28;20049;-39
2022/01/22 03:28:22;;;;;;;5.47;2.70;;;16.20;41.90;;;;;;5102535;28;20020;-37
2022/01/22 03:30:48;;;;;;;4.47;2.58;;;16.20;42.00;;;;;;5085597;28;20032;-39
2022/01/22 03:33:18;;;;;;;3.63;2.40;;;16.10;42.00;;;;;;5085069;28;20020;-38
2022/01/22 03:35:50;;;;;;;4.65;2.67;;;16.10;42.00;;;;;;5101307;28;20462;-38
2022/01/22 03:38:15;;;;;;;3.75;2.50;;;16.20;42.10;;;;;;5101433;28;20079;-38
2022/01/22 03:40:48;;;;;;;5.53;2.78;;;16.10;42.00;;;;;;5101604;28;20008;-38
2022/01/22 03:43:14;;;;;;;3.78;2.35;;;16.10;42.00;;;;;;5103396;28;20020;-38
2022/01/22 03:45:40;;;;;;;3.65;2.47;;;16.10;42.10;;;;;;5085388;28;20104;-38
2022/01/22 03:48:06;;;;;;;4.20;2.50;;;16.10;42.10;;;;;;5068218;28;20040;-38
2022/01/22 03:50:32;;;;;;;3.58;2.40;;;16.10;42.10;;;;;;5067212;28;20532;-37
2022/01/22 03:52:57;;;;;;;4.53;2.75;;;16.10;42.20;;;;;;5049533;28;20016;-38
2022/01/22 03:58:08;;;;;;;3.40;2.35;;;16.10;42.20;;;;;;5101046;28;20024;-38
2022/01/22 04:00:34;;;;;;;3.97;2.47;;;16.10;42.20;;;;;;5100061;28;20459;-38
2022/01/22 04:05:41;;;;;;;5.15;2.78;;;16.10;42.30;;;;;;5099461;28;20020;-38
2022/01/22 04:08:15;;;;;;;3.40;2.55;;;16.10;42.40;;;;;;5081817;28;20021;-37
2022/01/22 04:10:41;;;;;;;4.65;3.08;;;16.10;42.40;;;;;;5097384;28;20059;-38
2022/01/22 04:13:15;;;;;;;4.40;2.95;;;16.10;42.40;;;;;;5098167;28;20037;-38
2022/01/22 04:15:41;;;;;;;3.72;2.50;;;16.00;42.40;;;;;;5097334;28;20745;-37
2022/01/22 04:26:36;;;;;;;3.92;2.60;;;16.00;42.50;;;;;;5097138;28;20031;-38
2022/01/22 04:29:02;;;;;;;4.80;2.60;;;16.00;42.50;;;;;;5097405;28;20020;-37
2022/01/22 04:31:28;;;;;;;3.65;2.50;;;16.00;42.60;;;;;;5097772;28;20028;-37
2022/01/22 04:33:58;;;;;;;4.03;2.63;;;16.00;42.60;;;;;;5097610;28;20069;-37
2022/01/22 04:36:24;;;;;;;4.82;2.60;;;16.00;42.60;;;;;;5097574;28;20091;-38
2022/01/22 04:38:49;;;;;;;3.75;2.72;;;16.00;42.60;;;;;;5097476;28;20035;-38
2022/01/22 04:41:16;;;;;;;4.10;2.60;;;16.00;42.70;;;;;;5097570;28;20016;-37
2022/01/22 04:43:43;;;;;;;3.25;2.38;;;16.00;42.70;;;;;;5097175;28;20024;-37
2022/01/22 04:56:38;;;;;;;5.43;2.83;;;16.00;42.90;;;;;;5096519;28;20050;-37
2022/01/22 04:59:12;;;;;;;4.03;2.50;;;16.00;42.90;;;;;;5096436;28;20471;-38
2022/01/22 05:01:38;;;;;;;4.25;2.58;;;16.00;42.90;;;;;;5078497;28;20471;-37
2022/01/22 05:04:05;;;;;;;4.25;2.78;;;16.00;43.00;;;;;;5096738;28;20134;-38
2022/01/22 05:06:31;;;;;;;3.72;2.53;;;16.00;43.00;;;;;;5078273;28;20040;-38
2022/01/22 05:08:57;;;;;;;4.38;2.78;;;16.00;43.00;;;;;;5096578;28;20359;-37
2022/01/22 05:11:24;;;;;;;5.22;3.05;;;16.00;43.00;;;;;;5078563;28;20551;-39
2022/01/22 05:13:51;;;;;;;4.15;2.55;;;15.90;43.10;;;;;;5096897;28;20035;-38
2022/01/22 05:16:17;;;;;;;3.67;2.70;;;16.00;43.20;;;;;;5096521;28;20017;-38
2022/01/22 05:18:57;;;;;;;5.07;3.10;;;15.90;43.10;;;;;;5078278;28;20012;-37
2022/01/22 05:21:24;;;;;;;4.43;2.80;;;15.90;43.10;;;;;;5096683;28;20042;-38
2022/01/22 05:23:51;;;;;;;4.15;2.95;;;15.90;43.10;;;;;;5096272;28;20547;-37
2022/01/22 05:39:10;;;;;;;4.30;3.08;;;15.90;43.30;;;;;;5097820;28;20528;-38
2022/01/22 05:41:38;;;;;;;5.85;3.53;;;15.90;43.40;;;;;;5097520;28;20386;-37
2022/01/22 05:44:04;;;;;;;5.72;3.20;;;15.90;43.50;;;;;;5097577;28;20114;-38
2022/01/22 05:46:29;;;;;;;5.32;2.80;;;15.90;43.50;;;;;;5097586;28;20035;-39
2022/01/22 05:48:56;;;;;;;5.57;2.80;;;15.90;43.50;;;;;;5098266;28;20043;-38
2022/01/22 05:51:22;;;;;;;4.82;3.10;;;15.90;43.60;;;;;;5079846;28;20024;-39
2022/01/22 05:54:29;;;;;;;4.32;3.00;;;15.90;43.60;;;;;;5069424;28;20049;-38
2022/01/22 06:02:23;;;;;;;4.18;2.70;;;15.90;43.70;;;;;;5057528;28;20136;-38
2022/01/22 06:04:50;;;;;;;4.18;2.80;;;15.80;43.70;;;;;;5056924;28;20033;-43
2022/01/22 06:07:16;;;;;;;4.00;2.75;;;15.80;43.70;;;;;;5056987;28;20427;-39
2022/01/22 06:09:54;;;;;;;4.28;2.90;;;15.80;43.70;;;;;;5057313;28;20053;-40
2022/01/22 06:12:38;;;;;;;4.68;3.10;;;15.80;43.80;;;;;;5056873;28;20036;-40
2022/01/22 06:15:04;;;;;;;4.88;3.05;;;15.80;43.80;;;;;;5056508;28;20017;-40
2022/01/22 06:17:30;;;;;;;4.25;3.13;;;15.80;43.90;;;;;;5057555;28;20018;-39
2022/01/22 06:19:57;;;;;;;5.95;3.10;;;15.80;43.80;;;;;;5056127;28;20451;-39
2022/01/22 06:22:24;;;;;;;4.78;3.25;;;15.80;43.90;;;;;;5055538;28;20043;-37
2022/01/22 06:24:50;;;;;;;3.92;2.90;;;15.80;44.00;;;;;;5056515;28;20020;-43
2022/01/22 06:27:17;;;;;;;4.95;3.28;;;15.80;44.00;;;;;;5054649;28;20020;-38
2022/01/22 06:29:43;;;;;;;6.10;3.08;;;15.80;43.90;;;;;;5056570;28;20135;-39
2022/01/22 06:32:08;;;;;;;5.45;3.42;;;15.80;44.00;;;;;;5055661;28;20526;-38
2022/01/22 06:34:34;;;;;;;4.47;3.20;;;15.80;44.10;;;;;;5056086;28;20013;-39
2022/01/22 06:37:00;;;;;;;4.53;3.53;;;15.70;44.10;;;;;;5055699;28;20029;-39
2022/01/22 06:39:26;;;;;;;4.40;3.00;;;15.80;44.10;;;;;;5054020;28;20490;-38
2022/01/22 06:41:53;;;;;;;6.15;3.60;;;15.80;44.10;;;;;;5053936;28;20021;-38
2022/01/22 06:44:34;;;;;;;5.38;3.45;;;15.80;44.20;;;;;;5054522;28;20484;-39
2022/01/22 06:47:02;;;;;;;4.65;3.10;;;15.70;44.20;;;;;;5054679;28;20056;-37
2022/01/22 06:49:28;;;;;;;5.18;3.38;;;15.70;44.20;;;;;;5056280;28;20052;-38
2022/01/22 06:51:55;;;;;;;4.45;3.13;;;15.70;44.20;;;;;;5059746;28;20029;-41
2022/01/22 06:54:21;;;;;;;4.15;3.08;;;15.70;44.20;;;;;;5081573;28;20109;-38
2022/01/22 06:56:48;;;;;;;4.72;3.10;;;15.70;44.30;;;;;;5100093;28;20017;-38
2022/01/22 06:59:14;;;;;;;5.90;3.55;;;15.70;44.30;;;;;;5099500;28;20008;-39
2022/01/22 07:01:40;;;;;;;5.55;3.58;;;15.70;44.30;;;;;;5099588;28;20383;-38
2022/01/22 07:04:07;;;;;;;4.78;3.22;;;15.70;44.40;;;;;;5098780;28;20091;-38
2022/01/22 07:06:34;;;;;;;4.65;3.40;;;15.80;45.00;;;;;;5098495;28;20012;-39
2022/01/22 07:08:59;;;;;;;5.03;3.38;;;15.70;44.40;;;;;;5099340;28;20054;-38
2022/01/22 07:11:26;;;;;;;3.60;3.10;;;15.80;44.50;;;;;;5099786;28;20052;-38
2022/01/22 07:13:52;;;;;;;6.15;3.30;;;15.70;44.40;;;;;;5081033;28;20375;-39
2022/01/22 07:16:18;;;;;;;4.85;3.13;;;15.70;44.50;;;;;;5080920;28;20099;-38
2022/01/22 07:18:44;;;;;;;6.80;3.58;;;15.70;44.50;;;;;;5080507;28;20099;-39
2022/01/22 07:21:19;;;;;;;6.10;3.47;;;15.70;44.50;;;;;;5098361;28;20024;-40
2022/01/22 07:26:11;;;;;;;6.03;3.58;;;15.70;44.60;;;;;;5097004;28;20111;-38
2022/01/22 07:28:39;;;;;;;4.97;3.47;;;15.70;44.60;;;;;;5078901;28;20467;-38
2022/01/22 07:31:06;;;;;;;4.57;3.20;;;15.70;44.60;;;;;;5079001;28;20028;-38
2022/01/22 07:33:32;;;;;;;5.88;3.40;;;15.70;44.60;;;;;;5097308;28;20004;-38
2022/01/22 07:35:57;;;;;;;4.90;3.38;;;15.70;44.70;;;;;;5096901;28;20142;-39
2022/01/22 07:38:23;;;;;;;3.90;3.28;;;15.70;44.70;;;;;;5097434;28;20008;-39
2022/01/22 07:40:49;;;;;;;4.95;3.47;;;15.70;44.70;;;;;;5097001;28;20456;-40
2022/01/22 07:43:16;;;;;;;4.85;3.53;;;15.70;44.80;;;;;;5097417;28;20024;-39
2022/01/22 07:45:42;;;;;;;4.88;3.28;;;15.70;44.80;;;;;;5098502;28;20149;-39
2022/01/22 07:48:08;;;;;;;5.88;3.35;;;15.70;44.80;;;;;;5099202;28;20024;-38
2022/01/22 07:50:34;;;;;;;5.82;3.38;;;15.70;44.80;;;;;;5099758;28;20385;-38
2022/01/22 07:53:02;;;;;;;5.18;3.60;;;15.70;44.90;;;;;;5099864;28;20038;-39
2022/01/22 07:55:28;;;;;;;5.25;3.45;;;15.60;44.80;;;;;;5100628;28;20051;-40
2022/01/22 07:57:54;;;;;;;5.15;3.20;;;15.70;44.90;;;;;;5100290;28;20012;-38
2022/01/22 08:00:20;;;;;;;5.13;3.45;;;15.60;44.80;;;;;;5100543;28;20066;-38
2022/01/22 08:02:46;;;;;;;4.88;3.35;;;15.70;44.90;;;;;;5102007;28;20023;-39
2022/01/22 08:05:12;;;;;;;5.00;3.58;;;15.60;44.90;;;;;;5085614;28;20539;-38
2022/01/22 08:07:39;;;;;;;4.85;3.40;;;15.70;44.90;;;;;;5084856;28;20556;-40
2022/01/22 08:10:08;;;;;;;7.85;3.88;;;15.60;44.80;;;;;;5103400;28;20079;-38
2022/01/22 08:12:38;;;;;;;4.78;3.47;;;15.60;44.90;;;;;;5102535;28;20020;-38
2022/01/22 08:15:06;;;;;;;4.97;3.17;;;15.70;45.00;;;;;;5102689;28;20012;-39
2022/01/22 08:17:31;;;;;;;6.00;3.47;;;15.70;45.00;;;;;;5100682;28;20073;-40
2022/01/22 08:19:57;;;;;;;4.68;3.42;;;15.60;45.00;;;;;;5101292;28;20383;-39
2022/01/22 08:22:23;;;;;;;4.88;3.45;;;15.60;45.00;;;;;;5083773;28;20035;-38
2022/01/22 08:24:52;;;;;;;5.15;3.10;;;15.60;45.10;;;;;;5102740;28;20432;-38
2022/01/22 08:27:35;;;;;;;6.05;3.40;;;15.60;45.00;;;;;;5102806;28;20076;-39
2022/01/22 08:30:01;;;;;;;4.90;3.40;;;15.60;45.00;;;;;;5104639;28;20024;-39
2022/01/22 08:32:56;;;;;;;5.70;3.53;;;15.60;45.00;;;;;;5106053;28;20008;-39
2022/01/22 08:38:03;;;;;;;4.00;2.85;;;15.70;45.50;;;;;;5103598;28;20058;-39
2022/01/22 08:40:29;;;;;;;4.47;3.30;;;15.80;44.80;;;;;;5103003;28;20055;-38
2022/01/22 08:42:55;;;;;;;6.85;3.53;;;15.80;44.60;;;;;;5103591;28;20024;-39
2022/01/22 08:45:21;;;;;;;5.47;3.20;;;15.90;44.60;;;;;;5103414;28;20020;-38
2022/01/22 08:47:47;;;;;;;5.72;3.58;;;16.00;44.00;;;;;;5102313;28;20032;-38
2022/01/22 08:50:13;;;;;;;4.45;3.03;;;16.20;43.60;;;;;;5101503;28;20016;-39
2022/01/22 08:52:39;;;;;;;4.35;3.05;;;16.30;43.40;;;;;;5100877;28;20044;-38
2022/01/22 08:55:06;;;;;;;5.22;2.90;;;16.30;43.40;;;;;;5099798;28;20043;-38
2022/01/22 08:57:33;;;;;;;4.30;2.90;;;16.40;43.10;;;;;;5082064;28;20024;-38
2022/01/22 08:59:58;;;;;;;5.38;3.10;;;16.50;42.90;;;;;;5079627;28;20016;-37
2022/01/22 09:02:24;;;;;;;5.72;3.10;;;16.60;42.60;;;;;;5095070;28;20016;-38
2022/01/22 09:04:52;;;;;;;4.35;3.00;;;16.70;42.40;;;;;;5095421;28;20017;-38
2022/01/22 09:07:18;;;;;;;5.40;3.00;;;16.90;42.20;;;;;;5095351;28;20047;-38
2022/01/22 09:09:44;;;;;;;4.65;3.20;;;16.90;42.00;;;;;;5095306;28;20044;-38
2022/01/22 09:12:10;;;;;;;7.10;3.10;;;17.10;41.80;;;;;;5096675;28;20059;-38
2022/01/22 09:14:36;;;;;;;4.18;3.28;;;17.20;41.60;;;;;;5080128;28;20024;-40
2022/01/22 09:17:02;;;;;;;5.18;3.10;;;17.30;41.40;;;;;;5097096;28;20008;-38
2022/01/22 09:19:33;;;;;;;4.65;2.88;;;17.30;41.10;;;;;;5096847;28;20043;-39
2022/01/22 09:22:03;;;;;;;3.80;2.83;;;17.50;41.00;;;;;;5097854;28;20020;-38
2022/01/22 09:24:29;;;;;;;;;;;17.60;40.80;;;;;;5097158;28;20016;-38
2022/01/22 09:26:58;;;;;;;7.03;3.00;;;17.70;40.60;;;;;;5096341;28;19949;-38
2022/01/22 09:29:24;;;;;;;4.35;2.85;;;17.80;40.40;;;;;;5095851;28;20032;-39
2022/01/22 09:31:51;;;;;;;4.13;2.85;;;17.90;40.20;;;;;;5096550;28;20028;-38
2022/01/22 09:34:17;;;;;;;4.93;2.90;;;18.00;40.00;;;;;;5095940;28;20016;-38
2022/01/22 09:36:43;;;;;;;4.57;3.10;;;18.00;39.70;;;;;;5095457;28;20039;-39
2022/01/22 09:39:10;;;;;;;3.70;2.53;;;18.20;39.60;;;;;;5095586;28;20532;-38
2022/01/22 09:41:36;;;;;;;4.93;3.30;;;18.30;39.50;;;;;;5094983;28;20425;-39
2022/01/22 09:44:03;;;;;;;4.57;2.70;;;18.30;39.20;;;;;;5095109;28;20019;-38
2022/01/22 09:46:29;;;;;;;4.88;2.90;;;18.50;39.10;;;;;;5079053;28;20028;-39
2022/01/22 09:48:55;;;;;;;3.85;2.75;;;18.50;38.90;;;;;;5098332;28;20020;-39
2022/01/22 09:51:21;;;;;;;3.53;2.50;;;18.60;38.70;;;;;;5097001;28;20027;-38
2022/01/22 09:53:48;;;;;;;3.83;2.63;;;18.70;38.50;;;;;;5096574;28;20560;-38
2022/01/22 09:56:17;;;;;;;2.95;2.50;;;18.80;38.30;;;;;;5079776;28;20025;-39
2022/01/22 09:58:43;;;;;;;;;;;18.90;38.20;;;;;;5101544;28;20023;-40
2022/01/22 10:01:22;;;;;;;4.15;2.50;;;18.90;38.10;;;;;;5100993;28;19908;-38
2022/01/22 10:03:48;;;;;;;4.07;2.47;;;19.00;38.00;;;;;;5082480;28;20093;-39
2022/01/22 10:06:18;;;;;;;4.03;2.60;;;19.10;37.80;;;;;;5101584;28;20061;-39
2022/01/22 10:08:44;;;;;;;3.65;2.70;;;19.20;37.70;;;;;;5101293;28;20095;-41
2022/01/22 10:11:20;;;;;;;3.83;2.50;;;19.30;37.60;;;;;;5101050;28;20055;-39
2022/01/22 10:13:53;;;;;;;3.30;2.40;;;19.30;37.40;;;;;;5100965;28;20459;-40
2022/01/22 10:16:35;;;;;;;4.22;2.42;;;19.40;37.20;;;;;;5100679;28;20474;-39
2022/01/22 10:19:21;;;;;;;3.33;2.63;;;19.50;37.10;;;;;;5098000;28;20122;-39
2022/01/22 10:21:57;;;;;;;3.67;2.65;;;19.60;37.10;;;;;;5097875;28;20028;-38
2022/01/22 10:24:45;;;;;;;3.75;2.83;;;19.70;36.90;;;;;;5097546;28;20019;-39
2022/01/22 10:27:33;;;;;;;3.78;2.58;;;19.80;36.70;;;;;;5098799;28;20028;-38
2022/01/22 10:30:07;;;;;;;4.28;2.75;;;19.80;36.50;;;;;;5101750;28;20092;-39
2022/01/22 10:32:47;;;;;;;3.53;2.30;;;19.90;36.40;;;;;;5101024;28;20069;-38
2022/01/22 10:35:19;;;;;;;4.40;2.60;;;20.00;36.30;;;;;;5102027;28;20013;-39
2022/01/22 10:37:56;;;;;;;3.63;2.55;;;20.10;36.20;;;;;;5103449;28;20028;-39
2022/01/22 10:40:23;;;;;;;3.38;2.60;;;20.10;36.00;;;;;;5084962;28;20039;-40
2022/01/22 10:42:50;;;;;;;4.85;2.55;;;20.20;36.00;;;;;;5103447;28;20095;-39
2022/01/22 10:45:24;;;;;;;3.55;2.28;;;20.20;35.90;;;;;;5102701;28;20069;-39
2022/01/22 10:47:50;;;;;;;4.35;2.78;;;20.30;35.80;;;;;;5104343;28;20042;-39
2022/01/22 10:50:20;;;;;;;4.13;2.58;;;20.40;35.70;;;;;;5084801;28;20044;-38
2022/01/22 10:52:50;;;;;;;;;;;20.40;35.60;;;;;;5085885;28;20507;-39
2022/01/22 10:55:16;;;;;;;3.72;2.50;;;20.40;35.50;;;;;;5103482;28;19916;-39
2022/01/22 10:58:07;;;;;;;3.80;2.15;;;20.50;35.50;;;;;;5084643;28;20082;-38
2022/01/22 11:00:33;;;;;;;3.70;2.40;;;20.60;35.50;;;;;;5086800;28;20012;-37
2022/01/22 11:03:16;;;;;;;5.25;3.13;;;20.60;35.30;;;;;;5102438;28;20077;-37
2022/01/22 11:05:43;;;;;;;3.10;2.30;;;20.70;35.40;;;;;;5085046;28;20039;-37
2022/01/22 11:08:09;;;;;;;3.58;2.30;;;20.70;35.30;;;;;;5099900;28;20054;-38
2022/01/22 11:10:35;;;;;;;3.70;2.75;;;20.70;35.20;;;;;;5083002;28;20028;-37
2022/01/22 11:13:01;;;;;;;4.10;2.70;;;20.80;35.10;;;;;;5101763;28;20054;-37
2022/01/22 11:15:28;;;;;;;3.75;2.38;;;20.80;35.00;;;;;;5101559;28;20016;-38
2022/01/22 11:17:54;;;;;;;4.30;2.40;;;20.90;35.00;;;;;;5100924;28;20072;-37
2022/01/22 11:20:22;;;;;;;4.45;2.67;;;20.90;35.00;;;;;;5084541;28;20130;-37
2022/01/22 11:22:47;;;;;;;5.05;2.47;;;20.90;34.90;;;;;;5083530;28;20013;-38
2022/01/22 11:25:13;;;;;;;3.75;2.60;;;21.00;34.80;;;;;;5083571;28;20020;-38
2022/01/22 11:27:39;;;;;;;4.30;2.58;;;21.00;34.80;;;;;;5066861;28;20098;-39
2022/01/22 11:30:10;;;;;;;3.72;2.30;;;21.00;34.70;;;;;;5084618;28;20036;-38
2022/01/22 11:33:12;;;;;;;3.25;2.30;;;21.10;34.70;;;;;;5102498;28;20012;-39
2022/01/22 11:35:53;;;;;;;3.60;2.70;;;21.10;34.60;;;;;;5001332;28;20037;-38
2022/01/22 11:38:29;;;;;;;4.35;2.70;;;21.10;34.60;;;;;;5003580;28;20045;-37
2022/01/22 11:41:02;;;;;;;3.45;2.40;;;21.20;34.60;;;;;;4984763;28;20019;-38
2022/01/22 11:44:11;;;;;;;4.38;2.60;;;21.20;34.50;;;;;;5002464;28;20046;-40
2022/01/22 11:46:58;;;;;;;3.67;2.53;;;21.30;34.50;;;;;;4989895;28;20166;-38
2022/01/22 11:49:28;;;;;;;3.95;2.63;;;21.20;34.40;;;;;;5002955;28;20089;-38
2022/01/22 11:52:14;;;;;;;4.03;2.63;;;21.30;34.30;;;;;;5003072;28;20030;-38
2022/01/22 11:54:49;;;;;;;3.28;2.63;;;21.30;34.30;;;;;;5002643;28;20121;-39
2022/01/22 11:57:16;;;;;;;3.83;2.55;;;21.30;34.30;;;;;;5002895;28;20034;-38
2022/01/22 11:59:43;;;;;;;4.35;2.80;;;21.30;34.20;;;;;;5002542;28;20014;-39
2022/01/22 12:02:18;;;;;;;4.97;2.58;;;21.40;34.20;;;;;;5003981;28;20636;-39
2022/01/22 12:04:46;;;;;;;4.03;2.60;;;21.40;34.10;;;;;;4986734;28;20037;-39
2022/01/22 12:07:16;;;;;;;5.63;2.80;;;21.40;34.00;;;;;;5003369;28;20022;-38
2022/01/22 12:16:13;;;;;;;4.45;2.53;;;21.60;34.00;;;;;;5020766;28;20064;-39
2022/01/22 12:18:45;;;;;;;4.07;2.85;;;21.60;33.90;;;;;;5020799;28;20018;-37
2022/01/22 12:21:33;;;;;;;3.65;2.45;;;21.60;33.90;;;;;;5019761;28;20018;-38
2022/01/22 12:24:06;;;;;;;4.47;2.60;;;21.60;33.70;;;;;;5020198;28;20026;-37
2022/01/22 12:26:39;;;;;;;4.07;2.63;;;21.60;33.70;;;;;;5020792;28;20014;-37
2022/01/22 12:29:37;;;;;;;4.13;2.47;;;21.70;33.70;;;;;;5020383;28;20097;-37
2022/01/22 12:32:06;;;;;;;4.78;2.70;;;21.70;33.70;;;;;;4961816;29;20038;-37
2022/01/22 12:34:53;;;;;;;4.55;2.85;;;21.70;33.70;;;;;;4961812;29;20035;-36
2022/01/22 12:37:20;;;;;;;3.42;2.50;;;21.70;33.60;;;;;;4962880;29;20016;-37
2022/01/22 12:39:50;;;;;;;3.85;2.72;;;21.70;33.60;;;;;;4962401;29;20540;-36
2022/01/22 12:42:28;;;;;;;3.65;2.42;;;21.70;33.60;;;;;;4961548;29;20036;-37
2022/01/22 12:44:59;;;;;;;3.75;2.47;;;21.80;33.60;;;;;;4962177;29;20061;-36
2022/01/22 12:47:24;;;;;;;4.20;2.67;;;21.80;33.50;;;;;;4960950;28;20058;-37
2022/01/22 12:50:23;;;;;;;4.60;3.13;;;21.80;33.40;;;;;;4999726;28;20049;-36
2022/01/22 12:52:49;;;;;;;4.13;2.50;;;21.90;33.40;;;;;;4999949;28;20042;-37
2022/01/22 12:55:20;;;;;;;3.83;2.30;;;21.90;33.40;;;;;;4999877;28;20397;-36
2022/01/22 12:57:49;;;;;;;4.63;2.35;;;21.90;33.30;;;;;;5000076;28;20014;-39
2022/01/22 13:00:21;;;;;;;3.67;2.70;;;21.90;33.20;;;;;;4984188;28;20014;-37
2022/01/22 13:02:53;;;;;;;3.80;2.67;;;21.90;33.10;;;;;;5001605;28;20038;-37
2022/01/22 13:05:20;;;;;;;3.20;2.40;;;22.00;33.20;;;;;;5001432;28;20153;-36
2022/01/22 13:07:53;;;;;;;3.83;2.20;;;22.00;33.10;;;;;;5060894;28;20021;-38
2022/01/22 13:10:22;;;;;;;3.78;2.65;;;22.00;33.10;;;;;;5103903;28;20012;-36
2022/01/22 13:12:48;;;;;;;3.88;2.63;;;22.00;33.10;;;;;;5104339;28;20091;-37
2022/01/22 13:15:17;;;;;;;3.28;2.28;;;22.10;33.10;;;;;;5085377;28;20055;-37
2022/01/22 13:17:52;;;;;;;4.05;2.15;;;22.00;33.00;;;;;;5085381;28;20069;-37
2022/01/22 13:20:22;;;;;;;3.20;2.30;;;22.10;33.00;;;;;;5085504;28;20031;-37
2022/01/22 13:22:49;;;;;;;4.18;2.80;;;22.00;32.90;;;;;;5103201;28;20164;-37
2022/01/22 13:25:15;;;;;;;3.80;2.30;;;22.10;32.90;;;;;;5103634;28;20023;-37
2022/01/22 13:27:42;;;;;;;3.35;2.60;;;22.10;32.90;;;;;;5085698;28;20012;-37
2022/01/22 13:30:10;;;;;;;4.00;2.25;;;22.10;32.80;;;;;;5084946;28;20091;-38
2022/01/22 13:48:31;;;;;;;3.55;2.38;;;22.20;32.90;;;;;;5103585;28;20024;-37
2022/01/22 13:50:58;;;;;;;5.80;2.65;;;22.20;32.90;;;;;;5103754;28;20024;-37
2022/01/22 13:53:24;;;;;;;4.05;2.40;;;22.30;32.90;;;;;;5101621;28;20051;-37
2022/01/22 13:56:07;;;;;;;4.05;2.42;;;22.30;32.90;;;;;;5067739;28;20028;-37
2022/01/22 13:58:33;;;;;;;3.80;2.60;;;22.20;32.90;;;;;;5101959;28;20095;-37
2022/01/22 14:01:05;;;;;;;5.07;2.70;;;22.30;33.00;;;;;;5102207;28;20028;-36
2022/01/22 14:03:44;;;;;;;5.40;2.80;;;22.30;33.00;;;;;;5085612;28;20035;-37
2022/01/22 14:06:10;;;;;;;5.30;2.90;;;22.30;33.00;;;;;;5102131;28;20021;-37
2022/01/22 14:08:36;;;;;;;4.22;2.55;;;22.40;33.00;;;;;;5083553;28;20547;-36
2022/01/22 14:11:04;;;;;;;4.55;2.70;;;22.30;33.00;;;;;;5101359;28;20024;-36
2022/01/22 14:13:31;;;;;;;4.47;3.20;;;22.40;33.00;;;;;;5101140;28;20098;-37
2022/01/22 14:16:09;;;;;;;4.18;2.60;;;22.30;32.90;;;;;;5101363;28;20046;-37
2022/01/22 14:18:43;;;;;;;5.70;3.33;;;22.40;32.90;;;;;;5085021;28;20027;-37
2022/01/22 14:21:19;;;;;;;3.58;2.30;;;22.40;33.00;;;;;;5101780;28;20031;-37
2022/01/22 14:23:46;;;;;;;4.07;2.63;;;22.40;33.00;;;;;;5101157;28;20016;-37
2022/01/22 14:26:15;;;;;;;4.22;2.55;;;22.40;32.90;;;;;;5101108;28;20019;-36
2022/01/22 14:28:46;;;;;;;3.35;2.40;;;22.40;32.90;;;;;;5100847;28;20107;-37
2022/01/22 14:31:32;;;;;;;5.15;3.35;;;22.40;32.90;;;;;;5101000;28;20024;-36
2022/01/22 14:34:10;;;;;;;5.35;2.90;;;22.40;32.90;;;;;;5101153;28;20013;-37
2022/01/22 14:36:41;;;;;;;4.38;2.70;;;22.40;32.90;;;;;;5101204;28;20019;-37
2022/01/22 14:44:54;;;;;;;3.72;2.55;;;22.50;32.80;;;;;;5101853;28;20027;-37
2022/01/22 14:47:24;;;;;;;4.88;2.80;;;22.50;32.90;;;;;;5101407;28;20020;-38
2022/01/22 14:49:50;;;;;;;4.18;2.88;;;22.50;32.80;;;;;;5101708;28;20028;-36
2022/01/22 14:52:18;;;;;;;3.13;2.45;;;22.50;32.80;;;;;;5102432;28;20020;-37
2022/01/22 14:54:48;;;;;;;3.70;2.40;;;22.50;32.70;;;;;;5065713;28;20495;-36